createdAt,value
2023-01-13T00:01:00.176Z,8.73
2023-01-13T00:03:28.001Z,8.71
2023-01-13T00:05:55.708Z,8.70
2023-01-13T00:08:23.376Z,8.72
2023-01-13T00:10:51.037Z,8.73
2023-01-13T00:13:26.665Z,8.73
2023-01-13T00:15:58.102Z,8.75
2023-01-13T00:18:26.028Z,8.76
2023-01-13T00:21:20.139Z,8.73
2023-01-13T00:23:47.880Z,8.71
2023-01-13T00:26:19.794Z,8.71
2023-01-13T00:28:47.648Z,8.71
2023-01-13T00:31:16.443Z,8.70
2023-01-13T00:33:44.173Z,8.72
2023-01-13T00:36:12.728Z,8.75
2023-01-13T00:38:40.663Z,8.78
2023-01-13T00:41:12.248Z,8.78
2023-01-13T00:43:40.081Z,8.77
2023-01-13T00:46:08.506Z,8.77
2023-01-13T00:48:36.589Z,8.77
2023-01-13T00:51:14.970Z,8.75
2023-01-13T00:53:43.917Z,8.71
2023-01-13T00:56:11.571Z,8.70
2023-01-13T00:58:39.168Z,8.67
2023-01-13T01:01:07.964Z,8.66
2023-01-13T01:03:35.955Z,8.64
2023-01-13T01:06:05.367Z,8.64
2023-01-13T01:08:33.627Z,8.65
2023-01-13T01:11:02.454Z,8.67
2023-01-13T01:13:30.214Z,8.66
2023-01-13T01:15:58.097Z,8.65
2023-01-13T01:18:25.931Z,8.66
2023-01-13T01:20:53.575Z,8.66
2023-01-13T01:23:21.201Z,8.65
2023-01-13T01:25:48.824Z,8.64
2023-01-13T01:28:19.350Z,8.64
2023-01-13T01:30:47.041Z,8.65
2023-01-13T01:33:14.809Z,8.64
2023-01-13T01:35:43.051Z,8.59
2023-01-13T01:38:10.972Z,8.53
2023-01-13T01:40:38.675Z,8.47
2023-01-13T01:43:51.465Z,8.45
2023-01-13T01:46:19.207Z,8.47
2023-01-13T01:48:46.861Z,8.47
2023-01-13T01:51:14.587Z,8.50
2023-01-13T01:53:42.199Z,8.53
2023-01-13T01:56:09.807Z,8.56
2023-01-13T01:58:39.465Z,8.59
2023-01-13T02:01:07.245Z,8.62
2023-01-13T02:03:36.232Z,8.62
2023-01-13T02:06:04.160Z,8.59
2023-01-13T02:08:31.823Z,8.56
2023-01-13T02:10:59.456Z,8.55
2023-01-13T02:13:27.171Z,8.57
2023-01-13T02:16:15.123Z,8.59
2023-01-13T02:19:01.048Z,8.60
2023-01-13T02:21:31.869Z,8.60
2023-01-13T02:24:25.288Z,8.61
2023-01-13T02:27:12.331Z,8.63
2023-01-13T02:33:13.751Z,8.66
2023-01-13T02:35:51.489Z,8.69
2023-01-13T02:38:39.387Z,8.68
2023-01-13T02:41:37.585Z,8.71
2023-01-13T02:44:08.102Z,8.75
2023-01-13T02:46:41.972Z,8.76
2023-01-13T02:49:10.335Z,8.73
2023-01-13T02:51:37.983Z,8.70
2023-01-13T02:54:05.641Z,8.68
2023-01-13T02:56:35.456Z,8.66
2023-01-13T02:59:03.212Z,8.60
2023-01-13T03:01:31.053Z,8.61
2023-01-13T03:03:58.796Z,8.59
2023-01-13T03:06:29.777Z,8.57
2023-01-13T03:09:05.473Z,8.56
2023-01-13T03:11:34.890Z,8.56
2023-01-13T03:14:09.408Z,8.55
2023-01-13T03:16:38.423Z,8.52
2023-01-13T03:19:06.184Z,8.51
2023-01-13T03:21:52.668Z,8.54
2023-01-13T03:24:21.452Z,8.59
2023-01-13T03:26:50.424Z,8.62
2023-01-13T03:29:19.534Z,8.63
2023-01-13T03:32:05.520Z,8.63
2023-01-13T03:34:34.611Z,8.61
2023-01-13T03:37:03.495Z,8.63
2023-01-13T03:39:32.278Z,8.62
2023-01-13T03:42:01.873Z,8.60
2023-01-13T03:44:34.121Z,8.60
2023-01-13T03:47:13.011Z,8.62
2023-01-13T03:49:40.885Z,8.67
2023-01-13T03:52:09.783Z,8.72
2023-01-13T03:54:43.340Z,8.72
2023-01-13T03:57:12.036Z,8.69
2023-01-13T03:59:41.670Z,8.69
2023-01-13T04:02:11.222Z,8.65
2023-01-13T04:04:44.058Z,8.61
2023-01-13T04:07:24.756Z,8.54
2023-01-13T04:10:02.479Z,8.52
2023-01-13T04:12:52.511Z,8.50
2023-01-13T04:15:24.520Z,8.48
2023-01-13T04:17:52.963Z,8.48
2023-01-13T04:20:21.069Z,8.48
2023-01-13T04:22:48.704Z,8.49
2023-01-13T04:25:16.643Z,8.46
2023-01-13T04:27:44.839Z,8.42
2023-01-13T04:30:12.621Z,8.38
2023-01-13T04:32:40.551Z,8.39
2023-01-13T04:35:08.711Z,8.42
2023-01-13T04:37:36.437Z,8.44
2023-01-13T04:40:04.488Z,8.44
2023-01-13T04:42:32.122Z,8.42
2023-01-13T04:44:59.915Z,8.44
2023-01-13T04:47:27.609Z,8.48
2023-01-13T04:49:55.210Z,8.53
2023-01-13T04:52:22.942Z,8.56
2023-01-13T04:54:50.596Z,8.55
2023-01-13T04:57:18.327Z,8.55
2023-01-13T04:59:45.994Z,8.57
2023-01-13T05:02:19.953Z,8.56
2023-01-13T05:04:48.106Z,8.53
2023-01-13T05:07:16.412Z,8.49
2023-01-13T05:09:44.072Z,8.50
2023-01-13T05:12:31.204Z,8.52
2023-01-13T05:15:18.123Z,8.54
2023-01-13T05:17:46.185Z,8.56
2023-01-13T05:20:14.393Z,8.58
2023-01-13T05:23:01.224Z,8.59
2023-01-13T05:25:29.096Z,8.60
2023-01-13T05:27:57.943Z,8.57
2023-01-13T05:30:26.967Z,8.59
2023-01-13T05:32:54.636Z,8.60
2023-01-13T05:35:22.587Z,8.60
2023-01-13T05:37:50.584Z,8.57
2023-01-13T05:40:37.189Z,8.53
2023-01-13T05:43:21.360Z,8.53
2023-01-13T05:45:53.835Z,8.55
2023-01-13T05:48:22.005Z,8.58
2023-01-13T05:50:49.763Z,8.61
2023-01-13T05:53:17.879Z,8.61
2023-01-13T05:55:45.806Z,8.60
2023-01-13T05:58:14.540Z,8.58
2023-01-13T06:00:42.406Z,8.58
2023-01-13T06:03:10.670Z,8.57
2023-01-13T06:05:38.650Z,8.57
2023-01-13T06:08:06.946Z,8.58
2023-01-13T06:10:37.136Z,8.60
2023-01-13T06:13:04.964Z,8.60
2023-01-13T06:15:32.842Z,8.60
2023-01-13T06:18:02.227Z,8.61
2023-01-13T06:20:29.909Z,8.60
2023-01-13T06:22:57.725Z,8.62
2023-01-13T06:25:28.516Z,8.65
2023-01-13T06:27:59.127Z,8.67
2023-01-13T06:30:27.946Z,8.69
2023-01-13T06:32:55.917Z,8.71
2023-01-13T06:35:25.228Z,8.72
2023-01-13T06:37:53.576Z,8.74
2023-01-13T06:40:21.420Z,8.73
2023-01-13T06:43:07.727Z,8.75
2023-01-13T06:45:35.534Z,8.72
2023-01-13T06:48:03.234Z,8.73
2023-01-13T06:50:30.978Z,8.73
2023-01-13T06:52:58.608Z,8.77
2023-01-13T06:55:26.237Z,8.82
2023-01-13T06:57:54.996Z,8.85
2023-01-13T07:00:23.198Z,8.88
2023-01-13T07:02:50.950Z,8.92
2023-01-13T07:05:19.504Z,8.93
2023-01-13T07:07:47.190Z,8.95
2023-01-13T07:10:22.369Z,8.96
2023-01-13T07:13:08.906Z,8.95
2023-01-13T07:15:36.580Z,8.94
2023-01-13T07:18:04.251Z,8.94
2023-01-13T07:20:31.969Z,8.92
2023-01-13T07:22:59.678Z,8.92
2023-01-13T07:25:27.336Z,8.90
2023-01-13T07:27:57.167Z,8.93
2023-01-13T07:30:24.840Z,8.94
2023-01-13T07:32:52.582Z,8.97
2023-01-13T07:35:23.109Z,9.00
2023-01-13T07:37:50.804Z,9.03
2023-01-13T07:40:18.638Z,9.06
2023-01-13T07:43:05.299Z,9.08
2023-01-13T07:45:33.082Z,9.10
2023-01-13T07:48:00.752Z,9.09
2023-01-13T07:50:28.668Z,9.11
2023-01-13T07:52:59.235Z,9.12
2023-01-13T07:55:26.969Z,9.09
2023-01-13T07:57:54.710Z,9.10
2023-01-13T08:00:22.756Z,9.10
2023-01-13T08:02:50.444Z,9.10
2023-01-13T08:05:18.211Z,9.11
2023-01-13T08:07:45.824Z,9.12
2023-01-13T08:10:13.725Z,9.10
2023-01-13T08:13:00.533Z,9.12
2023-01-13T08:15:29.780Z,9.16
2023-01-13T08:17:58.294Z,9.16
2023-01-13T08:20:25.952Z,9.17
2023-01-13T08:22:57.944Z,9.19
2023-01-13T08:25:26.414Z,9.21
2023-01-13T08:27:54.107Z,9.23
2023-01-13T08:30:21.893Z,9.25
2023-01-13T08:32:50.073Z,9.26
2023-01-13T08:35:17.922Z,9.28
2023-01-13T08:37:45.781Z,9.27
2023-01-13T08:40:13.805Z,9.27
2023-01-13T08:42:41.442Z,9.30
2023-01-13T08:45:09.623Z,9.34
2023-01-13T08:47:37.279Z,9.40
2023-01-13T08:50:05.517Z,9.46
2023-01-13T08:52:33.316Z,9.52
2023-01-13T08:55:00.923Z,9.56
2023-01-13T08:57:28.778Z,9.56
2023-01-13T08:59:56.575Z,9.57
2023-01-13T09:02:24.422Z,9.55
2023-01-13T09:04:52.499Z,9.53
2023-01-13T09:07:20.271Z,9.55
2023-01-13T09:09:47.929Z,9.55
2023-01-13T09:12:34.724Z,9.57
2023-01-13T09:15:02.439Z,9.56
2023-01-13T09:17:30.277Z,9.55
2023-01-13T09:19:57.980Z,9.56
2023-01-13T09:22:27.203Z,9.57
2023-01-13T09:24:55.244Z,9.57
2023-01-13T09:27:23.045Z,9.57
2023-01-13T09:29:50.750Z,9.58
2023-01-13T09:32:18.446Z,9.57
2023-01-13T09:35:01.473Z,9.64
2023-01-13T09:37:30.004Z,9.69
2023-01-13T09:39:57.696Z,9.74
2023-01-13T09:42:46.410Z,9.81
2023-01-13T09:45:19.606Z,9.86
2023-01-13T09:47:47.468Z,9.89
2023-01-13T09:50:15.117Z,9.92
2023-01-13T09:52:43.186Z,9.98
2023-01-13T09:55:12.216Z,10.03
2023-01-13T09:57:40.267Z,10.11
2023-01-13T10:00:11.525Z,10.20
2023-01-13T10:02:42.685Z,10.51
2023-01-13T10:05:13.205Z,10.65
2023-01-13T10:07:42.815Z,10.72
2023-01-13T10:10:15.723Z,10.81
2023-01-13T10:13:02.671Z,10.81
2023-01-13T10:15:30.393Z,10.81
2023-01-13T10:18:15.736Z,10.88
2023-01-13T10:20:43.387Z,10.86
2023-01-13T10:23:34.261Z,10.98
2023-01-13T10:26:05.058Z,11.20
2023-01-13T10:28:32.792Z,11.16
2023-01-13T10:31:00.432Z,11.11
2023-01-13T10:33:28.576Z,11.04
2023-01-13T10:36:15.393Z,10.99
2023-01-13T10:38:43.087Z,10.92
2023-01-13T10:41:13.610Z,10.85
2023-01-13T10:43:44.991Z,10.78
2023-01-13T10:46:16.008Z,10.69
2023-01-13T10:48:44.609Z,10.66
2023-01-13T10:51:12.349Z,10.66
2023-01-13T10:53:49.429Z,10.65
2023-01-13T10:56:18.187Z,10.59
2023-01-13T10:58:46.005Z,10.56
2023-01-13T11:01:20.841Z,10.59
2023-01-13T11:03:48.848Z,10.62
2023-01-13T11:06:35.455Z,10.65
2023-01-13T11:09:03.250Z,10.74
2023-01-13T11:11:38.330Z,10.84
2023-01-13T11:14:27.109Z,10.94
2023-01-13T11:16:55.407Z,11.05
2023-01-13T11:19:23.075Z,11.12
2023-01-13T11:22:11.114Z,11.10
2023-01-13T11:24:40.319Z,11.15
2023-01-13T11:27:17.322Z,11.36
2023-01-13T11:30:09.574Z,11.80
2023-01-13T11:32:39.754Z,12.11
2023-01-13T11:35:15.135Z,12.22
2023-01-13T11:37:43.282Z,12.19
2023-01-13T11:40:28.360Z,12.08
2023-01-13T11:42:59.237Z,11.94
2023-01-13T11:45:26.820Z,11.89
2023-01-13T11:47:57.565Z,11.85
2023-01-13T11:50:31.332Z,11.85
2023-01-13T11:53:18.099Z,11.82
2023-01-13T11:56:26.912Z,11.73
2023-01-13T11:59:03.891Z,11.70
2023-01-13T12:01:35.460Z,11.71
2023-01-13T12:04:22.181Z,11.64
2023-01-13T12:06:57.265Z,11.51
2023-01-13T12:09:44.634Z,11.42
2023-01-13T12:12:22.963Z,11.37
2023-01-13T12:15:03.013Z,11.42
2023-01-13T12:18:00.021Z,11.54
2023-01-13T12:20:37.069Z,11.74
2023-01-13T12:23:06.592Z,11.91
2023-01-13T12:25:37.463Z,12.03
2023-01-13T12:28:14.718Z,12.25
2023-01-13T12:30:44.654Z,12.68
2023-01-13T12:33:18.930Z,13.02
2023-01-13T12:35:50.092Z,13.14
2023-01-13T12:38:21.223Z,12.97
2023-01-13T12:41:09.524Z,12.83
2023-01-13T12:43:55.872Z,12.63
2023-01-13T12:46:23.663Z,12.44
2023-01-13T12:48:57.308Z,12.36
2023-01-13T12:51:25.276Z,12.27
2023-01-13T12:53:53.193Z,12.20
2023-01-13T12:56:27.062Z,12.10
2023-01-13T12:59:13.555Z,12.15
2023-01-13T13:01:41.363Z,12.10
2023-01-13T13:04:22.157Z,11.96
2023-01-13T13:06:54.579Z,11.83
2023-01-13T13:09:29.354Z,11.63
2023-01-13T13:12:02.917Z,11.46
2023-01-13T13:14:43.619Z,11.30
2023-01-13T13:17:20.437Z,11.19
2023-01-13T13:19:48.654Z,11.13
2023-01-13T13:22:19.078Z,11.03
2023-01-13T13:24:49.763Z,10.92
2023-01-13T13:27:22.999Z,10.84
2023-01-13T13:30:09.533Z,10.78
2023-01-13T13:32:55.996Z,10.66
2023-01-13T13:35:40.091Z,10.47
2023-01-13T13:38:45.736Z,10.15
2023-01-13T13:41:33.131Z,9.83
2023-01-13T13:44:20.774Z,9.72
2023-01-13T13:46:49.112Z,9.58
2023-01-13T13:49:21.359Z,9.50
2023-01-13T13:51:55.256Z,9.40
2023-01-13T13:54:23.031Z,9.36
2023-01-13T13:56:50.719Z,9.32
2023-01-13T13:59:19.579Z,9.29
2023-01-13T14:01:50.272Z,9.23
2023-01-13T14:04:19.907Z,9.18
2023-01-13T14:06:51.937Z,9.11
2023-01-13T14:09:20.075Z,9.07
2023-01-13T14:11:56.438Z,9.06
2023-01-13T14:14:25.015Z,9.01
2023-01-13T14:16:54.937Z,9.01
2023-01-13T14:19:25.566Z,9.01
2023-01-13T14:21:53.320Z,8.95
2023-01-13T14:24:22.564Z,8.95
2023-01-13T14:26:52.051Z,9.03
2023-01-13T14:29:21.002Z,9.03
2023-01-13T14:31:49.413Z,9.04
2023-01-13T14:34:31.000Z,9.02
2023-01-13T14:36:59.998Z,9.02
2023-01-13T14:39:38.975Z,9.00
2023-01-13T14:42:13.397Z,8.98
2023-01-13T14:44:43.972Z,8.98
2023-01-13T14:47:18.104Z,8.97
2023-01-13T14:49:54.928Z,8.94
2023-01-13T14:52:23.498Z,8.91
2023-01-13T14:54:52.841Z,8.91
2023-01-13T14:57:25.471Z,8.88
2023-01-13T15:00:00.854Z,8.89
2023-01-13T15:02:34.041Z,8.87
2023-01-13T15:05:18.796Z,8.82
2023-01-13T15:07:53.616Z,8.79
2023-01-13T15:10:42.033Z,8.78
2023-01-13T15:13:21.737Z,8.76
2023-01-13T15:15:50.979Z,8.77
2023-01-13T15:18:18.644Z,8.78
2023-01-13T15:20:46.291Z,8.80
2023-01-13T15:23:14.225Z,8.82
2023-01-13T15:25:43.065Z,8.85
2023-01-13T15:28:15.111Z,8.83
2023-01-13T15:30:42.763Z,8.78
2023-01-13T15:33:12.493Z,8.73
2023-01-13T15:35:41.703Z,8.71
2023-01-13T15:38:10.361Z,8.68
2023-01-13T15:40:38.151Z,8.62
2023-01-13T15:43:24.647Z,8.64
2023-01-13T15:46:11.072Z,8.63
2023-01-13T15:48:38.902Z,8.62
2023-01-13T15:51:07.284Z,8.62
2023-01-13T15:53:36.909Z,8.63
2023-01-13T15:56:05.240Z,8.67
2023-01-13T15:58:32.920Z,8.71
2023-01-13T16:01:00.684Z,8.77
2023-01-13T16:03:28.448Z,8.82
2023-01-13T16:05:56.050Z,8.84
2023-01-13T16:08:23.790Z,8.80
2023-01-13T16:10:51.532Z,8.81
2023-01-13T16:13:19.198Z,8.81
2023-01-13T16:15:49.816Z,8.82
2023-01-13T16:18:18.726Z,8.83
2023-01-13T16:20:46.772Z,8.79
2023-01-13T16:23:14.507Z,8.73
2023-01-13T16:25:44.719Z,8.68
2023-01-13T16:28:17.259Z,8.59
2023-01-13T16:30:44.995Z,8.51
2023-01-13T16:33:12.631Z,8.47
2023-01-13T16:36:09.263Z,8.47
2023-01-13T16:38:28.298Z,8.44
2023-01-13T16:40:56.896Z,8.41
2023-01-13T16:43:24.537Z,8.42
2023-01-13T16:45:52.186Z,8.41
2023-01-13T16:48:20.213Z,8.43
2023-01-13T16:50:47.878Z,8.47
2023-01-13T16:53:15.648Z,8.48
2023-01-13T16:55:43.497Z,8.45
2023-01-13T16:58:15.807Z,8.42
2023-01-13T17:00:46.737Z,8.41
2023-01-13T17:03:17.640Z,8.39
2023-01-13T17:05:46.983Z,8.32
2023-01-13T17:08:18.990Z,8.27
2023-01-13T17:10:47.070Z,8.22
2023-01-13T17:13:16.769Z,8.16
2023-01-13T17:15:45.344Z,8.13
2023-01-13T17:18:13.604Z,8.10
2023-01-13T17:20:41.620Z,8.09
2023-01-13T17:23:09.324Z,8.06
2023-01-13T17:25:36.972Z,8.08
2023-01-13T17:28:04.691Z,8.08
2023-01-13T17:30:32.788Z,8.10
2023-01-13T17:33:00.745Z,8.05
2023-01-13T17:35:28.516Z,8.00
2023-01-13T17:37:56.979Z,7.96
2023-01-13T17:40:24.634Z,7.95
2023-01-13T17:42:52.347Z,7.91
2023-01-13T17:45:20.048Z,7.89
2023-01-13T17:47:47.789Z,7.88
2023-01-13T17:50:16.615Z,7.90
2023-01-13T17:52:45.974Z,7.91
2023-01-13T17:55:13.569Z,7.96
2023-01-13T17:57:41.158Z,7.99
2023-01-13T18:00:09.090Z,8.05
2023-01-13T18:02:42.771Z,8.10
2023-01-13T18:05:10.540Z,8.12
2023-01-13T18:07:38.269Z,8.14
2023-01-13T18:10:06.258Z,8.13
2023-01-13T18:12:34.868Z,8.11
2023-01-13T18:15:02.612Z,8.10
2023-01-13T18:17:30.248Z,8.05
2023-01-13T18:20:16.437Z,7.97
2023-01-13T18:23:02.630Z,7.90
2023-01-13T18:25:48.949Z,7.81
2023-01-13T18:28:16.954Z,7.77
2023-01-13T18:30:44.637Z,7.75
2023-01-13T18:33:12.303Z,7.71
2023-01-13T18:35:39.925Z,7.68
2023-01-13T18:38:08.418Z,7.62
2023-01-13T18:40:36.106Z,7.61
2023-01-13T18:43:03.723Z,7.58
2023-01-13T18:45:31.818Z,7.55
2023-01-13T18:48:00.571Z,7.54
2023-01-13T18:50:28.552Z,7.56
2023-01-13T18:52:56.329Z,7.60
2023-01-13T18:55:24.765Z,7.59
2023-01-13T18:57:53.403Z,7.59
2023-01-13T19:00:21.528Z,7.59
2023-01-13T19:05:34.531Z,7.54
2023-01-13T19:08:02.942Z,7.55
2023-01-13T19:10:32.336Z,7.53
2023-01-13T19:13:01.383Z,7.49
2023-01-13T19:15:29.334Z,7.45
2023-01-13T19:17:57.091Z,7.40
2023-01-13T19:20:24.761Z,7.36
2023-01-13T19:22:54.438Z,7.32
2023-01-13T19:25:22.225Z,7.29
2023-01-13T19:27:49.914Z,7.28
2023-01-13T19:30:17.788Z,7.28
2023-01-13T19:32:45.527Z,7.28
2023-01-13T19:35:17.344Z,7.29
2023-01-13T19:37:45.566Z,7.32
2023-01-13T19:40:13.859Z,7.34
2023-01-13T19:43:03.152Z,7.38
2023-01-13T19:45:32.161Z,7.39
2023-01-13T19:48:05.091Z,7.39
2023-01-13T19:50:37.372Z,7.38
2023-01-13T19:53:05.387Z,7.35
2023-01-13T19:55:33.110Z,7.32
2023-01-13T19:58:00.868Z,7.30
2023-01-13T20:00:29.155Z,7.26
2023-01-13T20:03:03.005Z,7.23
2023-01-13T20:05:30.813Z,7.18
2023-01-13T20:07:58.560Z,7.13
2023-01-13T20:10:26.243Z,7.10
2023-01-13T20:12:53.893Z,7.04
2023-01-13T20:15:21.594Z,6.99
2023-01-13T20:17:49.317Z,6.93
2023-01-13T20:20:18.525Z,6.88
2023-01-13T20:22:46.279Z,6.84
2023-01-13T20:25:16.989Z,6.79
2023-01-13T20:27:45.394Z,6.75
2023-01-13T20:30:14.404Z,6.71
2023-01-13T20:32:43.452Z,6.67
2023-01-13T20:35:11.354Z,6.64
2023-01-13T20:37:39.426Z,6.60
2023-01-13T20:40:07.599Z,6.60
2023-01-13T20:42:47.280Z,6.57
2023-01-13T20:45:17.741Z,6.55
2023-01-13T20:47:45.590Z,6.58
2023-01-13T20:50:13.351Z,6.54
2023-01-13T20:52:41.078Z,6.40
2023-01-13T20:55:09.098Z,6.32
2023-01-13T20:57:36.783Z,6.29
2023-01-13T21:00:05.856Z,6.27
2023-01-13T21:02:33.611Z,6.25
2023-01-13T21:05:01.293Z,6.21
2023-01-13T21:07:28.992Z,6.21
2023-01-13T21:09:57.808Z,6.26
2023-01-13T21:12:44.312Z,6.29
2023-01-13T21:15:18.490Z,6.30
2023-01-13T21:18:05.079Z,6.30
2023-01-13T21:20:33.546Z,6.30
2023-01-13T21:23:01.723Z,6.33
2023-01-13T21:25:29.564Z,6.33
2023-01-13T21:28:05.702Z,6.34
2023-01-13T21:30:33.509Z,6.35
2023-01-13T21:33:02.489Z,6.33
2023-01-13T21:35:30.134Z,6.30
2023-01-13T21:37:57.815Z,6.28
2023-01-13T21:40:25.583Z,6.30
2023-01-13T21:43:12.405Z,6.31
2023-01-13T21:45:58.898Z,6.28
2023-01-13T21:48:26.895Z,6.28
2023-01-13T21:50:54.683Z,6.28
2023-01-13T21:53:22.309Z,6.27
2023-01-13T21:55:50.713Z,6.26
2023-01-13T21:58:18.414Z,6.25
2023-01-13T22:00:46.382Z,6.24
2023-01-13T22:03:18.721Z,6.24
2023-01-13T22:05:47.148Z,6.20
2023-01-13T22:08:14.863Z,6.16
2023-01-13T22:10:57.727Z,6.13
2023-01-13T22:13:44.964Z,6.18
2023-01-13T22:16:12.751Z,6.22
2023-01-13T22:18:40.440Z,6.25
2023-01-13T22:21:08.296Z,6.30
2023-01-13T22:23:36.204Z,6.32
2023-01-13T22:26:04.352Z,6.35
2023-01-13T22:28:40.024Z,6.36
2023-01-13T22:31:12.284Z,6.36
2023-01-13T22:33:40.620Z,6.39
2023-01-13T22:36:08.942Z,6.36
2023-01-13T22:38:36.737Z,6.31
2023-01-13T22:41:06.220Z,6.26
2023-01-13T22:43:34.293Z,6.21
2023-01-13T22:46:02.945Z,6.19
2023-01-13T22:48:30.673Z,6.18
2023-01-13T22:51:04.301Z,6.15
2023-01-13T22:53:32.287Z,6.13
2023-01-13T22:56:00.260Z,6.10
2023-01-13T22:58:28.317Z,6.07
2023-01-13T23:00:56.407Z,6.04
2023-01-13T23:03:26.425Z,6.03
2023-01-13T23:05:57.808Z,6.01
2023-01-13T23:08:25.710Z,5.99
2023-01-13T23:10:59.704Z,5.96
2023-01-13T23:13:27.698Z,5.97
2023-01-13T23:15:55.399Z,5.95
2023-01-13T23:18:24.627Z,5.93
2023-01-13T23:20:52.282Z,5.94
2023-01-13T23:23:20.325Z,5.97
2023-01-13T23:25:53.451Z,5.96
2023-01-13T23:28:22.260Z,5.94
2023-01-13T23:30:51.620Z,5.93
2023-01-13T23:33:19.764Z,5.94
2023-01-13T23:35:57.653Z,5.94
2023-01-13T23:38:25.511Z,5.95
2023-01-13T23:40:53.183Z,5.97
2023-01-13T23:43:21.020Z,5.96
2023-01-13T23:45:48.860Z,5.94
2023-01-13T23:48:18.552Z,5.92
2023-01-13T23:50:56.044Z,5.90
2023-01-13T23:53:24.132Z,5.88
2023-01-13T23:55:56.580Z,5.84
2023-01-13T23:58:24.203Z,5.81
